Time;durP1;ratioP1;P1;durP2;ratioP2;P2;SDS_P1;SDS_P2;PMS_P1;PMS_P2;Temp;Humidity;BMP_temperature;BMP_pressure;BME280_temperature;BME280_humidity;BME280_pressure;Samples;Min_cycle;Max_cycle;Signal;HPM_P1;HPM_P2
2021/07/26 00:01:51;;;;;;;4.05;3.10;;;20.90;99.90;;;;;;5052339;28;20201;-77
2021/07/26 00:04:17;;;;;;;3.03;2.70;;;20.80;99.90;;;;;;5052015;28;20619;-77
2021/07/26 00:06:43;;;;;;;5.35;2.78;;;20.80;99.90;;;;;;5052235;28;20365;-78
2021/07/26 00:09:09;;;;;;;2.72;2.53;;;20.90;99.90;;;;;;5051885;28;20527;-79
2021/07/26 00:11:35;;;;;;;3.30;2.50;;;21.00;99.90;;;;;;5052281;28;20163;-78
2021/07/26 00:14:00;;;;;;;3.45;2.80;;;21.10;99.90;;;;;;5052005;28;20163;-77
2021/07/26 00:16:26;;;;;;;2.97;2.42;;;21.10;99.90;;;;;;5052045;28;20206;-78
2021/07/26 00:18:51;;;;;;;3.35;2.90;;;21.00;99.90;;;;;;5051852;28;20296;-77
2021/07/26 00:21:17;;;;;;;8.82;2.90;;;20.80;99.90;;;;;;5052119;28;20207;-78
2021/07/26 00:23:43;;;;;;;2.83;2.60;;;20.70;99.90;;;;;;5052346;28;20522;-77
2021/07/26 00:26:09;;;;;;;3.20;2.60;;;20.70;99.90;;;;;;5051835;28;20569;-77
2021/07/26 00:28:35;;;;;;;3.53;2.53;;;20.80;99.90;;;;;;5052003;28;20160;-77
2021/07/26 00:31:01;;;;;;;5.03;3.00;;;20.90;99.90;;;;;;5034122;28;20203;-77
2021/07/26 00:34:07;;;;;;;4.72;2.78;;;21.00;99.90;;;;;;5052379;28;20587;-78
2021/07/26 00:36:40;;;;;;;3.10;2.80;;;21.00;99.90;;;;;;5051859;28;20171;-77
2021/07/26 00:39:07;;;;;;;10.13;3.08;;;20.90;99.90;;;;;;5051937;28;20171;-78
2021/07/26 00:41:34;;;;;;;5.38;2.47;;;20.90;99.90;;;;;;5051861;28;20210;-78
2021/07/26 00:44:00;;;;;;;3.58;3.20;;;20.80;99.90;;;;;;5051706;28;20215;-78
2021/07/26 00:46:26;;;;;;;3.33;2.63;;;20.90;99.90;;;;;;5051674;28;20197;-78
2021/07/26 00:48:53;;;;;;;4.97;3.08;;;20.90;99.90;;;;;;5052026;28;20159;-78
2021/07/26 00:51:20;;;;;;;11.32;2.53;;;21.00;99.90;;;;;;5053165;28;20178;-77
2021/07/26 00:53:46;;;;;;;7.22;3.13;;;20.90;99.90;;;;;;5055720;28;20167;-77
2021/07/26 00:56:13;;;;;;;8.75;3.13;;;21.00;99.90;;;;;;5055549;28;20546;-77
2021/07/26 00:58:39;;;;;;;4.85;2.83;;;20.90;99.90;;;;;;5055195;28;20171;-77
2021/07/26 01:01:04;;;;;;;5.10;3.20;;;20.90;99.90;;;;;;5055184;28;20210;-78
2021/07/26 01:03:30;;;;;;;6.68;2.85;;;21.10;99.90;;;;;;5055670;28;20237;-77
2021/07/26 01:05:56;;;;;;;5.38;2.78;;;21.10;99.90;;;;;;5055238;28;20264;-77
2021/07/26 01:08:22;;;;;;;4.10;3.33;;;21.00;99.90;;;;;;5055386;28;20279;-77
2021/07/26 01:10:48;;;;;;;3.58;3.08;;;20.90;99.90;;;;;;5055558;28;20608;-77
2021/07/26 01:13:13;;;;;;;9.57;3.38;;;20.80;99.90;;;;;;5055428;28;20167;-77
2021/07/26 01:15:39;;;;;;;3.97;3.10;;;20.70;99.90;;;;;;5055408;28;20225;-78
2021/07/26 01:18:30;;;;;;;8.95;2.65;;;20.40;99.90;;;;;;5055342;28;20170;-78
2021/07/26 01:20:57;;;;;;;5.93;2.80;;;20.40;99.90;;;;;;5055200;28;20210;-78
2021/07/26 01:23:26;;;;;;;5.88;2.95;;;20.30;99.90;;;;;;5054968;28;20175;-78
2021/07/26 01:25:52;;;;;;;5.05;3.10;;;20.40;99.90;;;;;;5054908;28;20188;-77
2021/07/26 01:28:20;;;;;;;5.10;3.45;;;20.50;99.90;;;;;;5037003;28;20197;-78
2021/07/26 01:30:47;;;;;;;3.80;2.78;;;20.20;99.90;;;;;;5055076;28;20174;-78
2021/07/26 01:33:14;;;;;;;8.85;3.17;;;20.10;99.90;;;;;;5054821;28;20174;-78
2021/07/26 01:35:41;;;;;;;5.60;2.63;;;20.10;99.90;;;;;;5054762;28;20278;-77
2021/07/26 01:38:07;;;;;;;5.25;2.70;;;20.30;99.90;;;;;;5055070;28;20696;-77
2021/07/26 01:40:36;;;;;;;9.50;3.35;;;20.20;99.90;;;;;;5055105;28;20320;-78
2021/07/26 01:43:09;;;;;;;4.43;3.35;;;20.40;99.90;;;;;;5054653;28;20155;-77
2021/07/26 01:45:39;;;;;;;6.60;3.30;;;20.40;99.90;;;;;;5036740;28;20187;-77
2021/07/26 01:48:14;;;;;;;9.82;2.78;;;20.40;99.90;;;;;;5054611;28;20238;-77
2021/07/26 01:50:47;;;;;;;9.55;2.97;;;20.30;99.90;;;;;;5054885;28;20171;-77
2021/07/26 01:53:13;;;;;;;6.18;3.22;;;20.30;99.90;;;;;;5054632;28;20167;-77
2021/07/26 01:55:39;;;;;;;2.80;2.53;;;20.10;99.90;;;;;;5036798;28;20195;-77
2021/07/26 01:58:05;;;;;;;9.13;3.53;;;20.00;99.90;;;;;;5054198;28;20167;-77
2021/07/26 02:00:31;;;;;;;3.13;2.25;;;20.10;99.90;;;;;;5054105;28;20605;-77
2021/07/26 02:02:57;;;;;;;6.18;3.30;;;20.00;99.90;;;;;;5053244;28;20171;-77
2021/07/26 02:05:23;;;;;;;7.15;3.00;;;20.00;99.90;;;;;;5054296;28;20191;-77
2021/07/26 02:07:49;;;;;;;3.03;2.40;;;19.80;99.90;;;;;;5054441;28;20163;-77
2021/07/26 02:10:15;;;;;;;3.55;3.25;;;19.80;99.90;;;;;;5054567;28;20171;-76
2021/07/26 02:12:40;;;;;;;3.40;2.90;;;19.80;99.90;;;;;;5054067;28;20168;-76
2021/07/26 02:15:06;;;;;;;6.45;2.67;;;19.70;99.90;;;;;;5054148;28;20187;-77
2021/07/26 02:17:32;;;;;;;3.00;2.72;;;19.60;99.90;;;;;;5053858;28;20190;-77
2021/07/26 02:19:57;;;;;;;5.70;2.55;;;19.60;99.90;;;;;;5035914;28;20264;-77
2021/07/26 02:22:23;;;;;;;4.80;2.30;;;19.60;99.90;;;;;;5053870;28;20202;-76
2021/07/26 02:24:49;;;;;;;5.78;2.80;;;19.60;99.90;;;;;;5053508;28;20240;-76
2021/07/26 02:27:15;;;;;;;3.53;2.92;;;19.70;99.90;;;;;;5035799;28;20191;-76
2021/07/26 02:29:40;;;;;;;8.45;2.38;;;19.60;99.90;;;;;;5053858;28;20194;-76
2021/07/26 02:32:06;;;;;;;4.35;3.30;;;19.40;99.90;;;;;;5053880;28;20572;-76
2021/07/26 02:34:32;;;;;;;5.13;2.70;;;19.60;99.90;;;;;;5053843;28;20296;-77
2021/07/26 02:36:58;;;;;;;3.00;2.70;;;19.70;99.90;;;;;;5053875;28;20255;-76
2021/07/26 02:39:24;;;;;;;2.90;2.65;;;19.80;99.90;;;;;;5053770;28;20619;-77
2021/07/26 02:41:50;;;;;;;5.60;3.15;;;19.60;99.90;;;;;;5053693;28;20178;-76
2021/07/26 02:44:15;;;;;;;9.48;2.70;;;19.50;99.90;;;;;;5053771;28;20170;-77
2021/07/26 02:46:41;;;;;;;5.82;2.80;;;19.50;99.90;;;;;;5053704;28;20252;-76
2021/07/26 02:49:06;;;;;;;5.68;2.75;;;19.50;99.90;;;;;;5053650;28;20186;-77
2021/07/26 02:51:32;;;;;;;2.97;2.67;;;19.40;99.90;;;;;;5053663;28;20171;-77
2021/07/26 02:53:58;;;;;;;2.88;2.60;;;19.30;99.90;;;;;;5053643;28;20527;-77
2021/07/26 02:56:23;;;;;;;2.70;2.45;;;19.40;99.90;;;;;;5053216;28;20175;-76
2021/07/26 02:58:49;;;;;;;6.75;2.90;;;19.40;99.90;;;;;;5053021;28;20559;-76
2021/07/26 03:01:17;;;;;;;6.40;3.40;;;19.50;99.90;;;;;;5053103;28;20290;-77
2021/07/26 03:03:43;;;;;;;6.95;2.55;;;19.50;99.90;;;;;;5053351;28;20160;-77
2021/07/26 03:06:19;;;;;;;2.70;2.50;;;19.40;99.90;;;;;;5053107;28;20245;-77
2021/07/26 03:08:45;;;;;;;8.13;2.88;;;19.50;99.90;;;;;;5052927;28;20217;-77
2021/07/26 03:11:11;;;;;;;5.70;3.15;;;19.50;99.90;;;;;;5052808;28;20190;-77
2021/07/26 03:13:41;;;;;;;7.35;3.15;;;19.50;99.90;;;;;;5052490;28;20530;-77
2021/07/26 03:16:09;;;;;;;3.00;2.50;;;19.50;99.90;;;;;;5052774;28;20639;-77
2021/07/26 03:18:34;;;;;;;4.82;3.00;;;19.40;99.90;;;;;;5034769;28;20179;-78
2021/07/26 03:21:00;;;;;;;15.20;3.25;;;19.10;99.90;;;;;;5052631;28;20217;-78
2021/07/26 03:23:26;;;;;;;4.25;3.53;;;18.80;99.90;;;;;;5052581;28;20198;-78
2021/07/26 03:25:52;;;;;;;4.60;2.63;;;18.70;99.90;;;;;;5052524;28;20214;-78
2021/07/26 03:28:17;;;;;;;6.43;3.45;;;18.50;99.90;;;;;;5052773;28;20179;-77
2021/07/26 03:30:43;;;;;;;8.45;4.38;;;18.70;99.90;;;;;;5052820;28;20217;-78
2021/07/26 03:33:09;;;;;;;6.65;3.10;;;18.80;99.90;;;;;;5052614;28;20167;-78
2021/07/26 03:35:34;;;;;;;8.57;3.33;;;18.90;99.90;;;;;;5052745;28;20178;-78
2021/07/26 03:38:00;;;;;;;3.28;2.97;;;19.00;99.90;;;;;;5052671;28;20493;-78
2021/07/26 03:40:26;;;;;;;4.85;3.55;;;19.10;99.90;;;;;;5052718;28;20203;-78
2021/07/26 03:42:52;;;;;;;6.40;3.33;;;19.20;99.90;;;;;;5052736;28;20594;-78
2021/07/26 03:45:19;;;;;;;8.45;3.45;;;19.30;99.90;;;;;;5052581;28;20272;-78
2021/07/26 03:47:46;;;;;;;5.25;3.65;;;19.30;99.90;;;;;;5052063;28;20166;-77
2021/07/26 03:50:13;;;;;;;5.05;4.15;;;19.30;99.90;;;;;;5052449;28;20167;-78
2021/07/26 03:52:58;;;;;;;4.47;2.78;;;19.40;99.90;;;;;;5052255;28;20665;-78
2021/07/26 03:55:32;;;;;;;8.18;3.83;;;19.50;99.90;;;;;;5052254;28;20187;-78
2021/07/26 03:57:58;;;;;;;4.85;3.90;;;19.70;99.90;;;;;;5052169;28;20246;-78
2021/07/26 04:00:25;;;;;;;13.38;3.80;;;19.70;99.90;;;;;;5052011;28;20690;-78
2021/07/26 04:02:59;;;;;;;3.83;3.33;;;19.80;99.90;;;;;;5052196;28;20166;-78
2021/07/26 04:08:07;;;;;;;4.53;3.90;;;19.50;99.90;;;;;;5051977;28;20162;-78
2021/07/26 04:10:35;;;;;;;6.75;4.68;;;19.50;99.90;;;;;;5052166;28;20564;-78
2021/07/26 04:13:01;;;;;;;13.43;4.85;;;19.50;99.90;;;;;;5052223;28;20649;-78
2021/07/26 04:15:26;;;;;;;6.43;4.68;;;19.40;99.90;;;;;;5052096;28;20262;-78
2021/07/26 04:17:52;;;;;;;5.57;5.05;;;19.40;99.90;;;;;;5052067;28;20519;-78
2021/07/26 04:20:18;;;;;;;11.25;4.75;;;19.50;99.90;;;;;;5052153;28;20242;-78
2021/07/26 04:22:43;;;;;;;8.02;4.50;;;19.50;99.90;;;;;;5052195;28;20163;-78
2021/07/26 04:25:09;;;;;;;7.03;4.40;;;19.50;99.90;;;;;;5051801;28;20199;-78
2021/07/26 04:27:36;;;;;;;12.50;4.55;;;19.60;99.90;;;;;;5055461;28;20179;-78
2021/07/26 04:30:03;;;;;;;5.80;4.70;;;19.50;99.90;;;;;;5056324;28;20183;-78
2021/07/26 04:32:29;;;;;;;10.85;4.45;;;19.60;99.90;;;;;;5055983;28;20167;-78
2021/07/26 04:35:04;;;;;;;6.93;4.72;;;19.60;99.90;;;;;;5055857;28;20187;-78
2021/07/26 04:37:29;;;;;;;9.00;4.28;;;19.60;99.90;;;;;;5055859;28;20229;-78
2021/07/26 04:39:55;;;;;;;5.35;4.45;;;19.80;99.90;;;;;;5055635;28;20222;-78
2021/07/26 04:42:21;;;;;;;6.15;4.20;;;20.00;99.90;;;;;;5055546;28;20616;-78
2021/07/26 04:44:46;;;;;;;12.23;4.78;;;20.00;99.90;;;;;;5055542;28;20179;-78
2021/07/26 04:47:12;;;;;;;13.25;5.53;;;20.10;99.90;;;;;;5055537;28;20635;-77
2021/07/26 04:49:37;;;;;;;9.32;6.50;;;20.00;99.90;;;;;;5037688;28;20163;-77
2021/07/26 04:52:03;;;;;;;12.98;5.50;;;19.90;99.90;;;;;;5055573;28;20251;-77
2021/07/26 04:54:29;;;;;;;9.25;6.65;;;19.80;99.90;;;;;;5055159;28;20187;-77
2021/07/26 04:56:54;;;;;;;14.13;7.00;;;19.90;99.90;;;;;;5055125;28;20555;-77
2021/07/26 04:59:20;;;;;;;5.90;5.03;;;19.90;99.90;;;;;;5055177;28;20619;-77
2021/07/26 05:01:45;;;;;;;9.95;6.03;;;19.80;99.90;;;;;;5055263;28;20619;-77
2021/07/26 05:04:11;;;;;;;12.25;6.15;;;20.00;99.90;;;;;;5055373;28;20171;-77
2021/07/26 05:06:37;;;;;;;6.13;5.00;;;20.20;99.90;;;;;;5055453;28;20182;-77
2021/07/26 05:09:02;;;;;;;6.78;5.15;;;20.40;99.90;;;;;;5055029;28;20236;-77
2021/07/26 05:11:28;;;;;;;6.55;5.13;;;20.40;99.90;;;;;;5055140;28;20242;-77
2021/07/26 05:13:54;;;;;;;12.15;4.03;;;20.40;99.90;;;;;;5054920;28;20173;-77
2021/07/26 05:16:20;;;;;;;5.97;4.30;;;20.20;99.90;;;;;;5054801;28;20589;-77
2021/07/26 05:18:45;;;;;;;5.78;4.00;;;20.40;99.90;;;;;;5055249;28;20266;-77
2021/07/26 05:21:11;;;;;;;5.53;3.30;;;20.60;99.90;;;;;;5054656;28;20203;-77
2021/07/26 05:23:36;;;;;;;7.63;3.33;;;20.70;99.90;;;;;;5055071;28;20497;-79
2021/07/26 05:26:02;;;;;;;5.53;3.00;;;20.70;99.90;;;;;;5037018;28;20244;-77
2021/07/26 05:28:28;;;;;;;3.75;3.17;;;20.70;99.90;;;;;;5036976;28;20190;-77
2021/07/26 05:30:53;;;;;;;7.45;3.50;;;20.70;99.90;;;;;;5055238;28;20526;-77
2021/07/26 05:33:19;;;;;;;5.93;3.42;;;20.60;99.90;;;;;;5054905;28;20705;-78
2021/07/26 05:35:45;;;;;;;4.05;3.30;;;20.50;99.90;;;;;;5054644;28;20213;-78
2021/07/26 05:38:10;;;;;;;11.82;3.67;;;20.50;99.90;;;;;;5054731;28;20242;-77
2021/07/26 05:40:36;;;;;;;8.35;3.65;;;20.40;99.90;;;;;;5054469;28;20207;-77
2021/07/26 05:43:02;;;;;;;6.60;2.72;;;20.50;99.90;;;;;;5054431;28;20238;-78
2021/07/26 05:45:28;;;;;;;4.30;3.30;;;20.50;99.90;;;;;;5054676;28;20210;-78
2021/07/26 05:47:53;;;;;;;3.70;2.92;;;20.60;99.90;;;;;;5054475;28;20162;-77
2021/07/26 05:50:19;;;;;;;3.75;3.42;;;20.80;99.90;;;;;;5054653;28;20519;-79
2021/07/26 05:52:46;;;;;;;8.40;3.70;;;21.10;99.90;;;;;;5036137;28;20167;-77
2021/07/26 05:55:12;;;;;;;4.93;3.22;;;21.10;99.90;;;;;;5054239;28;20274;-77
2021/07/26 05:57:43;;;;;;;11.05;3.88;;;21.20;99.90;;;;;;5054223;28;20305;-78
2021/07/26 06:00:12;;;;;;;9.52;3.72;;;21.20;99.90;;;;;;5054142;28;20202;-78
2021/07/26 06:02:38;;;;;;;5.53;3.83;;;21.10;99.90;;;;;;5036305;28;20608;-78
2021/07/26 06:05:04;;;;;;;3.35;3.05;;;21.10;99.90;;;;;;5054082;28;20249;-78
2021/07/26 06:07:29;;;;;;;3.40;3.10;;;21.40;99.90;;;;;;5054154;28;20305;-79
2021/07/26 06:09:55;;;;;;;9.68;3.42;;;21.50;99.90;;;;;;5054521;28;20242;-76
2021/07/26 06:12:23;;;;;;;4.90;4.05;;;21.70;99.90;;;;;;5053918;28;20167;-78
2021/07/26 06:14:48;;;;;;;9.07;2.88;;;21.60;99.90;;;;;;5036040;28;20191;-78
2021/07/26 06:17:15;;;;;;;4.40;3.08;;;21.30;99.90;;;;;;5053500;28;20171;-78
2021/07/26 06:19:42;;;;;;;2.95;2.40;;;21.00;99.90;;;;;;5053782;28;20159;-78
2021/07/26 06:22:08;;;;;;;6.07;2.90;;;20.90;99.90;;;;;;5053574;28;20225;-78
2021/07/26 06:24:34;;;;;;;2.67;2.47;;;20.80;99.90;;;;;;5053355;28;20183;-78
2021/07/26 06:26:59;;;;;;;7.00;3.08;;;20.80;99.90;;;;;;5053243;28;20186;-78
2021/07/26 06:29:25;;;;;;;4.68;2.97;;;20.70;99.90;;;;;;5053643;28;20656;-78
2021/07/26 06:31:51;;;;;;;3.33;3.03;;;20.80;99.90;;;;;;5053672;28;20174;-78
2021/07/26 06:34:17;;;;;;;4.50;3.97;;;20.80;99.90;;;;;;5053683;28;20242;-78
2021/07/26 06:36:44;;;;;;;6.07;5.28;;;20.80;99.90;;;;;;5053613;28;20602;-78
2021/07/26 06:39:09;;;;;;;7.40;4.97;;;20.70;99.90;;;;;;5053515;28;20293;-78
2021/07/26 06:41:36;;;;;;;9.05;4.75;;;20.60;99.90;;;;;;5053307;28;20314;-78
2021/07/26 06:44:02;;;;;;;6.95;5.22;;;20.80;99.90;;;;;;5053541;28;20162;-78
2021/07/26 06:46:28;;;;;;;6.38;5.78;;;20.70;99.90;;;;;;5052887;28;20247;-78
2021/07/26 06:48:53;;;;;;;6.72;5.90;;;20.70;99.90;;;;;;5052305;28;20242;-77
2021/07/26 06:51:21;;;;;;;7.22;6.45;;;20.70;99.90;;;;;;5053558;28;20527;-78
2021/07/26 06:53:46;;;;;;;7.00;5.88;;;20.90;99.90;;;;;;5053427;28;20249;-80
2021/07/26 06:56:12;;;;;;;13.77;7.72;;;20.80;99.90;;;;;;5035092;28;20630;-78
2021/07/26 06:58:39;;;;;;;12.93;6.93;;;20.50;99.90;;;;;;5053186;28;20159;-79
2021/07/26 07:01:11;;;;;;;12.23;7.70;;;20.20;99.90;;;;;;5034840;28;20206;-76
2021/07/26 07:03:37;;;;;;;8.85;7.95;;;20.30;99.90;;;;;;5035435;28;20171;-78
2021/07/26 07:06:03;;;;;;;12.25;8.07;;;20.30;99.90;;;;;;5052923;28;20210;-75
2021/07/26 07:08:29;;;;;;;11.05;8.55;;;20.30;99.90;;;;;;5052832;28;20174;-76
2021/07/26 07:11:10;;;;;;;11.23;8.95;;;20.50;99.90;;;;;;5052890;28;20178;-76
2021/07/26 07:13:38;;;;;;;13.48;8.85;;;20.30;99.90;;;;;;5035421;28;20237;-78
2021/07/26 07:16:18;;;;;;;11.98;9.00;;;20.50;99.90;;;;;;5053397;28;20191;-77
2021/07/26 07:18:54;;;;;;;12.07;8.32;;;20.60;99.90;;;;;;5052881;28;20167;-81
2021/07/26 07:21:25;;;;;;;13.00;9.05;;;20.50;99.90;;;;;;5035428;28;20210;-78
2021/07/26 07:23:52;;;;;;;14.30;8.85;;;20.50;99.90;;;;;;5052521;28;20176;-77
2021/07/26 07:26:19;;;;;;;17.55;10.30;;;20.60;99.90;;;;;;5052547;28;20187;-79
2021/07/26 07:28:45;;;;;;;17.42;10.48;;;20.90;99.90;;;;;;5052455;28;20166;-76
2021/07/26 07:31:13;;;;;;;18.42;9.50;;;21.20;99.90;;;;;;5052268;28;20163;-77
2021/07/26 07:33:38;;;;;;;17.85;11.02;;;21.30;99.90;;;;;;5053489;28;20163;-83
2021/07/26 07:36:06;;;;;;;14.45;10.30;;;21.10;99.90;;;;;;5053967;28;20206;-89
2021/07/26 07:38:33;;;;;;;18.00;10.13;;;21.30;99.90;;;;;;5054458;28;20159;-79
2021/07/26 07:40:59;;;;;;;11.40;9.05;;;22.10;99.90;;;;;;5053738;28;20253;-79
2021/07/26 07:43:26;;;;;;;10.02;8.98;;;22.60;99.90;;;;;;5052201;28;20615;-80
2021/07/26 07:45:54;;;;;;;13.27;8.10;;;22.90;99.90;;;;;;5052260;28;20707;-79
2021/07/26 07:48:20;;;;;;;10.73;8.48;;;23.10;99.90;;;;;;5051556;28;21257;-79
2021/07/26 07:50:45;;;;;;;11.20;8.80;;;23.20;99.90;;;;;;5051776;28;20297;-79
2021/07/26 07:53:11;;;;;;;9.15;7.88;;;23.40;99.90;;;;;;5052042;28;20853;-79
2021/07/26 07:55:37;;;;;;;11.02;7.32;;;23.60;99.90;;;;;;5033998;28;20595;-79
2021/07/26 07:58:03;;;;;;;17.90;8.60;;;23.60;99.90;;;;;;5036632;28;20619;-79
2021/07/26 08:00:29;;;;;;;14.32;9.07;;;23.10;99.90;;;;;;5053418;28;20573;-94
2021/07/26 08:02:55;;;;;;;18.35;9.25;;;23.00;99.90;;;;;;5055616;28;20563;-90
2021/07/26 08:05:21;;;;;;;10.57;8.93;;;23.00;99.90;;;;;;5036545;28;20187;-89
2021/07/26 08:07:47;;;;;;;13.00;9.50;;;22.80;99.90;;;;;;5056965;28;20527;-90
2021/07/26 08:10:14;;;;;;;14.00;9.57;;;22.30;99.90;;;;;;5053749;28;20167;-84
2021/07/26 08:12:40;;;;;;;15.60;10.45;;;21.90;99.90;;;;;;5054132;28;20711;-87
2021/07/26 08:15:07;;;;;;;23.85;10.45;;;21.80;99.90;;;;;;5053827;28;20191;-89
2021/07/26 08:17:33;;;;;;;15.50;10.20;;;21.30;99.90;;;;;;5053960;28;20268;-89
2021/07/26 08:19:58;;;;;;;19.50;11.15;;;21.10;99.90;;;;;;5054117;28;20667;-88
2021/07/26 08:22:24;;;;;;;14.77;10.40;;;21.20;99.90;;;;;;5036877;28;20198;-90
2021/07/26 08:24:50;;;;;;;22.08;11.20;;;21.00;99.90;;;;;;5054152;28;20229;-87
2021/07/26 08:27:15;;;;;;;18.48;10.55;;;21.10;99.90;;;;;;5053942;28;20205;-88
2021/07/26 08:29:41;;;;;;;24.23;10.30;;;21.30;99.90;;;;;;5036584;28;20159;-92
2021/07/26 08:32:06;;;;;;;18.30;11.25;;;21.40;99.90;;;;;;5054663;28;20225;-92
2021/07/26 08:34:33;;;;;;;26.15;11.18;;;21.60;99.90;;;;;;5036949;28;20563;-89
2021/07/26 08:37:01;;;;;;;21.23;10.70;;;21.40;99.90;;;;;;5057530;28;20168;-91
2021/07/26 08:39:27;;;;;;;18.50;9.90;;;21.30;99.90;;;;;;5038047;28;20308;-90
2021/07/26 08:41:53;;;;;;;15.88;11.00;;;21.20;99.90;;;;;;5039248;28;20260;-91
2021/07/26 08:44:18;;;;;;;12.63;10.02;;;21.30;99.90;;;;;;5038055;28;20567;-95
2021/07/26 08:46:45;;;;;;;14.98;10.65;;;21.60;99.90;;;;;;5053951;28;20171;-89
2021/07/26 08:49:15;;;;;;;20.83;11.18;;;21.90;99.90;;;;;;5036984;28;20175;-89
2021/07/26 08:51:44;;;;;;;18.90;11.25;;;21.70;99.90;;;;;;5037028;28;20175;-94
2021/07/26 08:54:12;;;;;;;17.02;10.18;;;21.60;99.90;;;;;;5037169;28;20179;-92
2021/07/26 08:56:39;;;;;;;24.48;10.80;;;21.80;99.90;;;;;;5037409;28;20179;-93
2021/07/26 08:59:05;;;;;;;20.95;12.10;;;21.50;99.90;;;;;;5038018;28;20179;-88
2021/07/26 09:01:32;;;;;;;16.90;11.43;;;21.40;99.90;;;;;;5035884;28;20289;-86
2021/07/26 09:03:58;;;;;;;17.60;9.98;;;21.50;99.90;;;;;;5036287;28;20167;-87
2021/07/26 09:06:24;;;;;;;16.67;10.63;;;21.70;99.90;;;;;;5036313;28;20187;-87
2021/07/26 09:08:53;;;;;;;20.83;9.35;;;21.70;99.90;;;;;;5035917;28;20607;-85
2021/07/26 09:11:18;;;;;;;11.90;9.50;;;22.10;99.90;;;;;;5053433;28;20225;-88
2021/07/26 09:13:46;;;;;;;11.70;9.82;;;22.50;99.90;;;;;;5038736;28;20530;-87
2021/07/26 09:16:20;;;;;;;14.10;9.55;;;22.80;99.90;;;;;;5039829;28;20236;-94
2021/07/26 09:19:00;;;;;;;19.95;10.00;;;22.70;99.90;;;;;;5056622;28;20174;-94
2021/07/26 09:21:53;;;;;;;10.23;9.00;;;22.40;99.90;;;;;;5056917;28;20202;-88
2021/07/26 09:24:26;;;;;;;14.02;9.57;;;22.30;99.90;;;;;;5039623;28;20167;-92
2021/07/26 09:26:52;;;;;;;14.95;9.07;;;22.40;99.90;;;;;;5040066;28;20194;-93
2021/07/26 09:29:29;;;;;;;14.85;8.57;;;22.40;99.90;;;;;;5040298;28;20253;-95
2021/07/26 09:31:59;;;;;;;11.93;8.05;;;22.40;99.90;;;;;;5039030;28;20287;-88
2021/07/26 09:34:25;;;;;;;20.23;7.93;;;22.40;99.90;;;;;;5057171;28;20224;-87
2021/07/26 09:36:51;;;;;;;9.23;7.35;;;22.80;99.90;;;;;;5055777;28;20242;-88
2021/07/26 09:39:28;;;;;;;18.20;8.25;;;23.20;99.90;;;;;;5041056;28;20186;-87
2021/07/26 09:41:56;;;;;;;14.65;7.07;;;23.30;99.90;;;;;;5058930;28;20202;-94
2021/07/26 09:44:27;;;;;;;13.55;8.00;;;23.20;99.90;;;;;;5045735;28;20163;-94
2021/07/26 09:46:54;;;;;;;13.00;8.57;;;23.20;99.90;;;;;;5041079;28;20163;-88
2021/07/26 09:49:21;;;;;;;8.60;6.88;;;23.30;99.90;;;;;;5040514;28;20177;-91
2021/07/26 09:52:08;;;;;;;8.38;6.93;;;23.40;99.90;;;;;;5040641;28;20195;-92
2021/07/26 09:54:49;;;;;;;16.40;6.38;;;23.50;99.90;;;;;;5041754;28;20183;-93
2021/07/26 09:57:20;;;;;;;8.43;5.53;;;23.60;99.90;;;;;;5024959;28;20650;-92
2021/07/26 09:59:46;;;;;;;7.47;5.90;;;24.30;99.90;;;;;;5040313;28;20261;-91
2021/07/26 10:02:20;;;;;;;10.13;5.80;;;24.50;99.90;;;;;;5038709;28;20290;-90
2021/07/26 10:04:47;;;;;;;6.45;5.85;;;24.30;99.90;;;;;;5057332;28;20183;-90
2021/07/26 10:07:14;;;;;;;8.55;6.40;;;24.40;99.90;;;;;;5039260;28;20266;-89
2021/07/26 10:09:41;;;;;;;7.18;5.68;;;24.20;99.90;;;;;;5056799;28;20174;-88
2021/07/26 10:12:10;;;;;;;6.18;5.25;;;24.50;99.90;;;;;;5039276;28;20202;-89
2021/07/26 10:14:37;;;;;;;6.10;5.55;;;24.90;99.90;;;;;;5038658;28;20179;-90
2021/07/26 10:17:04;;;;;;;5.80;5.22;;;25.20;99.90;;;;;;5056364;28;20171;-90
2021/07/26 10:19:29;;;;;;;7.60;5.38;;;25.60;99.90;;;;;;5057177;28;20160;-92
2021/07/26 10:21:59;;;;;;;4.18;3.78;;;25.60;99.90;;;;;;5055405;28;20709;-91
2021/07/26 10:24:50;;;;;;;5.78;4.57;;;25.50;99.90;;;;;;5055999;28;20159;-90
2021/07/26 10:27:27;;;;;;;5.32;3.90;;;25.20;99.90;;;;;;5038754;28;20191;-88
2021/07/26 10:29:57;;;;;;;4.65;3.85;;;25.50;99.90;;;;;;5056483;28;20247;-91
2021/07/26 10:32:29;;;;;;;4.65;3.97;;;25.30;99.90;;;;;;5037679;28;20199;-91
2021/07/26 10:34:59;;;;;;;5.40;3.03;;;24.80;99.90;;;;;;5038265;28;20254;-93
2021/07/26 10:37:48;;;;;;;4.05;3.60;;;24.50;99.90;;;;;;5056198;28;20172;-90
2021/07/26 10:40:22;;;;;;;5.38;3.75;;;24.50;99.90;;;;;;5028479;28;20217;-87
2021/07/26 10:42:53;;;;;;;10.90;3.25;;;24.70;99.90;;;;;;5055260;28;20557;-89
2021/07/26 10:45:33;;;;;;;3.40;3.10;;;24.50;99.90;;;;;;5055928;28;20187;-89
2021/07/26 10:48:30;;;;;;;3.97;3.30;;;24.50;99.90;;;;;;5038613;28;20294;-89
2021/07/26 10:50:57;;;;;;;7.43;2.78;;;24.80;99.90;;;;;;5039114;28;20321;-92
2021/07/26 10:53:46;;;;;;;5.25;3.08;;;25.10;99.90;;;;;;5038044;28;20293;-88
2021/07/26 10:56:14;;;;;;;9.00;3.47;;;25.20;99.90;;;;;;5029283;28;20297;-89
2021/07/26 10:58:43;;;;;;;6.10;3.53;;;25.60;99.90;;;;;;5055005;28;20631;-87
2021/07/26 11:01:23;;;;;;;11.82;3.50;;;25.50;99.90;;;;;;5038339;28;20264;-91
2021/07/26 11:03:50;;;;;;;8.32;3.35;;;25.20;99.90;;;;;;5037401;28;20638;-90
2021/07/26 11:06:37;;;;;;;15.32;3.72;;;25.10;99.90;;;;;;5053965;28;20285;-91
2021/07/26 11:09:33;;;;;;;8.23;3.35;;;24.90;99.90;;;;;;5055594;28;20171;-93
2021/07/26 11:12:02;;;;;;;6.28;3.53;;;25.00;99.90;;;;;;5055384;28;20178;-95
2021/07/26 11:15:18;;;;;;;6.28;3.17;;;24.90;99.90;;;;;;5062606;28;20281;-96
2021/07/26 11:18:14;;;;;;;4.50;3.50;;;25.10;99.90;;;;;;5037713;28;20174;-88
2021/07/26 11:21:13;;;;;;;4.93;2.95;;;25.40;99.90;;;;;;5053978;28;20256;-88
2021/07/26 11:23:52;;;;;;;10.15;3.20;;;25.50;99.90;;;;;;5036988;28;20708;-84
2021/07/26 11:26:29;;;;;;;3.90;3.22;;;25.30;99.90;;;;;;5036202;28;20183;-85
2021/07/26 11:29:00;;;;;;;4.13;3.03;;;25.30;99.90;;;;;;5054859;28;20209;-84
2021/07/26 11:31:40;;;;;;;3.83;3.33;;;25.40;99.90;;;;;;5036517;28;20216;-85
2021/07/26 11:34:10;;;;;;;4.55;3.30;;;25.30;99.90;;;;;;5037886;28;20166;-85
2021/07/26 11:36:36;;;;;;;5.50;3.65;;;25.60;99.90;;;;;;5036510;28;20182;-85
2021/07/26 11:39:08;;;;;;;6.20;2.85;;;25.60;99.90;;;;;;5035670;28;20164;-84
2021/07/26 11:41:34;;;;;;;7.65;3.45;;;25.70;99.90;;;;;;5035501;28;20237;-85
2021/07/26 11:44:00;;;;;;;6.07;2.95;;;25.70;99.90;;;;;;5035590;28;20172;-85
2021/07/26 11:46:29;;;;;;;3.92;3.13;;;25.60;99.90;;;;;;5036008;28;20678;-84
2021/07/26 11:48:57;;;;;;;3.15;2.72;;;25.50;99.90;;;;;;5036286;28;20536;-85
2021/07/26 11:51:37;;;;;;;4.15;2.80;;;25.30;99.90;;;;;;5035949;28;20171;-84
2021/07/26 11:54:06;;;;;;;3.53;2.80;;;25.20;99.90;;;;;;5035337;28;20182;-82
2021/07/26 11:56:32;;;;;;;7.72;2.67;;;25.30;99.90;;;;;;5057931;28;20270;-92
2021/07/26 11:59:21;;;;;;;3.70;3.13;;;25.20;99.90;;;;;;5034969;28;20304;-82
2021/07/26 12:01:56;;;;;;;4.88;3.58;;;25.40;99.90;;;;;;5034677;28;20198;-81
2021/07/26 12:04:25;;;;;;;4.10;3.70;;;25.40;99.90;;;;;;5034433;28;20166;-81
2021/07/26 12:07:03;;;;;;;4.38;3.58;;;25.50;99.90;;;;;;5034782;28;20654;-82
2021/07/26 12:09:30;;;;;;;4.53;3.47;;;25.70;99.90;;;;;;5034786;28;20239;-81
2021/07/26 12:12:11;;;;;;;3.53;3.22;;;25.50;99.90;;;;;;5034821;28;20167;-81
2021/07/26 12:14:37;;;;;;;3.25;2.95;;;25.30;99.90;;;;;;5034485;28;20659;-81
2021/07/26 12:17:03;;;;;;;5.15;2.92;;;25.10;99.90;;;;;;5034563;28;20178;-82
2021/07/26 12:19:30;;;;;;;11.35;3.55;;;24.70;99.90;;;;;;5052203;28;20172;-81
2021/07/26 12:21:59;;;;;;;7.57;3.60;;;24.60;99.90;;;;;;5034293;28;20300;-81
2021/07/26 12:24:54;;;;;;;11.27;3.42;;;23.70;99.90;;;;;;5052576;28;20169;-81
2021/07/26 12:27:31;;;;;;;7.90;3.63;;;22.60;99.90;;;;;;5052666;28;20659;-82
2021/07/26 12:30:12;;;;;;;3.33;2.67;;;22.20;99.90;;;;;;5034527;28;20174;-85
2021/07/26 12:32:52;;;;;;;3.70;2.90;;;21.90;99.90;;;;;;5034574;28;20167;-82
2021/07/26 12:35:17;;;;;;;2.90;2.60;;;21.50;99.90;;;;;;5034412;28;20186;-81
2021/07/26 12:38:03;;;;;;;3.30;2.70;;;21.30;99.90;;;;;;5034133;28;20179;-82
2021/07/26 12:40:29;;;;;;;4.82;3.55;;;21.30;99.90;;;;;;5052713;28;20666;-82
2021/07/26 12:43:07;;;;;;;4.90;4.47;;;21.70;99.90;;;;;;5052321;28;20242;-82
2021/07/26 12:45:32;;;;;;;9.35;5.57;;;22.10;99.90;;;;;;5034683;28;20193;-82
2021/07/26 12:47:59;;;;;;;7.28;6.43;;;22.30;99.90;;;;;;5037144;28;20175;-83
2021/07/26 12:50:25;;;;;;;7.25;5.75;;;22.50;99.90;;;;;;5055003;28;20167;-83
2021/07/26 12:52:51;;;;;;;7.45;6.70;;;22.90;99.90;;;;;;5056226;28;20174;-83
2021/07/26 12:55:17;;;;;;;8.07;7.25;;;23.30;99.90;;;;;;5038404;28;20187;-83